createdAt,value
2023-06-19T00:02:29.917Z,25.13
2023-06-19T00:05:02.358Z,25.14
2023-06-19T00:07:35.954Z,25.16
2023-06-19T00:10:08.559Z,25.17
2023-06-19T00:12:40.846Z,25.17
2023-06-19T00:15:13.760Z,25.15
2023-06-19T00:17:46.147Z,25.14
2023-06-19T00:20:19.241Z,25.11
2023-06-19T00:22:53.142Z,25.07
2023-06-19T00:25:25.319Z,25.05
2023-06-19T00:27:57.558Z,25.04
2023-06-19T00:30:34.019Z,25.03
2023-06-19T00:33:06.949Z,25.03
2023-06-19T00:35:39.135Z,25.01
2023-06-19T00:38:11.420Z,25.01
2023-06-19T00:40:43.760Z,24.99
2023-06-19T00:43:16.034Z,24.97
2023-06-19T00:45:48.336Z,24.95
2023-06-19T00:48:21.242Z,24.94
2023-06-19T00:50:53.720Z,24.93
2023-06-19T00:53:26.716Z,24.90
2023-06-19T00:56:00.962Z,24.85
2023-06-19T00:58:34.007Z,24.85
2023-06-19T01:01:09.168Z,24.79
2023-06-19T01:03:42.943Z,24.77
2023-06-19T01:06:23.204Z,24.73
2023-06-19T01:09:05.136Z,24.71
2023-06-19T01:11:49.065Z,24.70
2023-06-19T01:14:38.094Z,24.69
2023-06-19T01:17:11.413Z,24.66
2023-06-19T01:19:43.893Z,24.66
2023-06-19T01:22:32.577Z,24.64
2023-06-19T01:25:06.846Z,24.66
2023-06-19T01:27:39.581Z,24.62
2023-06-19T01:30:14.572Z,24.61
2023-06-19T01:33:30.024Z,24.61
2023-06-19T01:36:04.729Z,24.63
2023-06-19T01:38:38.424Z,24.63
2023-06-19T01:41:12.332Z,24.60
2023-06-19T01:43:46.631Z,24.57
2023-06-19T01:46:21.901Z,24.55
2023-06-19T01:48:54.943Z,24.53
2023-06-19T01:51:27.416Z,24.55
2023-06-19T01:53:59.713Z,24.53
2023-06-19T01:56:32.205Z,24.54
2023-06-19T01:59:04.573Z,24.47
2023-06-19T02:01:37.202Z,24.48
2023-06-19T02:04:09.458Z,24.54
2023-06-19T02:06:41.622Z,24.51
2023-06-19T02:09:13.812Z,24.52
2023-06-19T02:11:46.058Z,24.54
2023-06-19T02:14:19.001Z,24.54
2023-06-19T02:16:51.259Z,24.55
2023-06-19T02:19:23.479Z,24.51
2023-06-19T02:21:55.762Z,24.47
2023-06-19T02:24:28.068Z,24.45
2023-06-19T02:27:00.568Z,24.45
2023-06-19T02:29:35.221Z,24.39
2023-06-19T02:32:07.719Z,24.40
2023-06-19T02:34:39.943Z,24.43
2023-06-19T02:37:12.129Z,24.38
2023-06-19T02:39:44.316Z,24.36
2023-06-19T02:42:16.688Z,24.37
2023-06-19T02:44:48.939Z,24.32
2023-06-19T02:47:21.140Z,24.24
2023-06-19T02:49:53.292Z,24.29
2023-06-19T02:52:25.852Z,24.25
2023-06-19T02:54:58.007Z,24.22
2023-06-19T02:57:30.262Z,24.18
2023-06-19T03:00:02.471Z,24.08
2023-06-19T03:02:34.745Z,24.01
2023-06-19T03:05:07.393Z,24.02
2023-06-19T03:07:39.506Z,24.01
2023-06-19T03:10:11.662Z,24.00
2023-06-19T03:12:43.862Z,23.94
2023-06-19T03:15:16.106Z,23.84
2023-06-19T03:17:48.887Z,23.85
2023-06-19T03:20:22.190Z,23.87
2023-06-19T03:22:54.668Z,23.87
2023-06-19T03:25:26.886Z,23.92
2023-06-19T03:27:59.053Z,23.86
2023-06-19T03:30:31.923Z,23.82
2023-06-19T03:33:04.094Z,23.84
2023-06-19T03:35:36.318Z,23.85
2023-06-19T03:38:08.476Z,23.82
2023-06-19T03:40:40.762Z,23.78
2023-06-19T03:43:13.136Z,23.64
2023-06-19T03:45:45.394Z,23.63
2023-06-19T03:48:18.764Z,23.55
2023-06-19T03:50:50.848Z,23.55
2023-06-19T03:53:23.859Z,23.58
2023-06-19T03:55:56.939Z,23.51
2023-06-19T03:58:29.094Z,23.34
2023-06-19T04:01:01.227Z,23.30
2023-06-19T04:03:33.650Z,23.30
2023-06-19T04:06:05.880Z,23.24
2023-06-19T04:08:38.262Z,23.22
2023-06-19T04:11:10.445Z,23.16
2023-06-19T04:13:42.860Z,23.19
2023-06-19T04:16:15.074Z,23.09
2023-06-19T04:18:47.297Z,23.05
2023-06-19T04:21:19.990Z,23.14
2023-06-19T04:23:52.175Z,23.20
2023-06-19T04:26:25.795Z,23.11
2023-06-19T04:54:03.440Z,23.26
2023-06-19T05:02:05.380Z,23.17
2023-06-19T05:48:01.632Z,23.66
2023-06-19T06:06:45.738Z,23.57
2023-06-19T06:13:22.754Z,23.38
2023-06-19T06:15:59.588Z,23.42
2023-06-19T06:21:55.066Z,23.51
2023-06-19T06:24:30.683Z,23.57
2023-06-19T06:27:34.004Z,23.57
2023-06-19T06:30:07.566Z,23.52
2023-06-19T06:32:44.069Z,23.69
2023-06-19T06:35:18.175Z,23.96
2023-06-19T06:37:51.305Z,24.31
2023-06-19T06:40:42.917Z,24.42
2023-06-19T06:43:16.436Z,24.62
2023-06-19T06:45:49.141Z,24.75
2023-06-19T06:48:22.158Z,24.81
2023-06-19T06:51:02.499Z,24.68
2023-06-19T06:53:34.820Z,24.68
2023-06-19T06:56:33.865Z,24.71
2023-06-19T06:59:06.172Z,24.79
2023-06-19T07:01:38.717Z,24.80
2023-06-19T07:04:19.490Z,24.70
2023-06-19T07:06:52.204Z,24.79
2023-06-19T07:09:24.416Z,24.90
2023-06-19T07:11:58.609Z,24.94
2023-06-19T07:14:31.234Z,24.94
2023-06-19T07:17:04.212Z,25.03
2023-06-19T07:19:40.899Z,25.20
2023-06-19T07:22:13.597Z,25.31
2023-06-19T07:24:45.908Z,25.28
2023-06-19T07:27:18.782Z,25.38
2023-06-19T07:29:50.957Z,25.72
2023-06-19T07:32:25.089Z,25.99
2023-06-19T07:34:57.399Z,26.13
2023-06-19T07:37:30.734Z,26.28
2023-06-19T07:40:22.825Z,26.25
2023-06-19T07:42:58.108Z,26.38
2023-06-19T07:45:37.870Z,26.39
2023-06-19T07:48:11.836Z,26.49
2023-06-19T07:50:45.197Z,26.53
2023-06-19T07:53:17.764Z,26.33
2023-06-19T07:55:52.896Z,26.33
2023-06-19T07:59:18.518Z,26.40
2023-06-19T08:01:41.795Z,26.32
2023-06-19T08:04:24.983Z,26.31
2023-06-19T08:07:07.714Z,26.54
2023-06-19T08:09:43.139Z,26.68
2023-06-19T08:12:25.261Z,26.70
2023-06-19T08:14:58.190Z,26.90
2023-06-19T08:17:47.002Z,27.18
2023-06-19T08:20:21.311Z,27.29
2023-06-19T08:22:54.201Z,27.40
2023-06-19T08:25:29.879Z,27.51
2023-06-19T08:28:02.169Z,27.46
2023-06-19T08:30:34.527Z,27.41
2023-06-19T08:33:19.362Z,27.32
2023-06-19T08:35:51.592Z,27.52
2023-06-19T08:38:24.151Z,27.74
2023-06-19T08:40:56.852Z,27.90
2023-06-19T08:43:29.484Z,27.64
2023-06-19T08:46:40.661Z,27.73
2023-06-19T08:49:14.343Z,27.69
2023-06-19T08:51:46.705Z,27.71
2023-06-19T08:54:49.683Z,27.70
2023-06-19T08:57:46.719Z,27.95
2023-06-19T09:00:31.470Z,28.59
2023-06-19T09:03:14.746Z,29.30
2023-06-19T09:05:51.894Z,29.75
2023-06-19T09:08:33.049Z,30.14
2023-06-19T09:12:34.977Z,30.40
2023-06-19T09:14:56.207Z,30.78
2023-06-19T09:17:35.195Z,30.25
2023-06-19T09:20:10.675Z,30.31
2023-06-19T09:22:45.788Z,29.96
2023-06-19T09:25:34.919Z,29.66
2023-06-19T09:28:24.456Z,29.47
2023-06-19T09:31:04.921Z,29.73
2023-06-19T09:33:38.565Z,30.30
2023-06-19T09:36:47.460Z,30.05
2023-06-19T09:39:24.772Z,30.22
2023-06-19T09:42:02.838Z,30.20
2023-06-19T09:52:23.653Z,31.24
2023-06-19T09:55:04.166Z,31.24
2023-06-19T09:57:40.570Z,31.51
2023-06-19T10:00:42.956Z,31.83
2023-06-19T10:07:07.903Z,32.22
2023-06-19T10:32:00.236Z,30.75
2023-06-19T10:35:00.152Z,30.10
2023-06-19T10:37:40.684Z,30.43
2023-06-19T10:43:07.815Z,29.88
2023-06-19T10:45:41.637Z,29.22
2023-06-19T10:48:35.465Z,28.69
2023-06-19T10:51:10.380Z,28.87
2023-06-19T10:54:33.544Z,29.78
2023-06-19T11:00:49.869Z,31.86
2023-06-19T11:03:31.950Z,31.37
2023-06-19T11:06:32.655Z,30.70
2023-06-19T11:09:11.169Z,29.67
2023-06-19T11:15:44.605Z,28.53
2023-06-19T11:18:19.122Z,28.23
2023-06-19T11:20:53.736Z,28.26
2023-06-19T11:23:31.912Z,28.62
2023-06-19T11:26:08.652Z,28.83
2023-06-19T11:28:41.132Z,29.19
2023-06-19T11:31:13.355Z,29.65
2023-06-19T11:33:45.696Z,29.63
2023-06-19T11:36:19.707Z,29.71
2023-06-19T11:38:53.934Z,29.47
2023-06-19T11:41:30.230Z,29.56
2023-06-19T11:44:07.908Z,29.69
2023-06-19T11:46:40.492Z,29.70
2023-06-19T11:49:19.484Z,29.06
2023-06-19T11:51:51.841Z,28.85
2023-06-19T11:54:24.154Z,28.73
2023-06-19T11:56:56.722Z,29.02
2023-06-19T11:59:31.963Z,28.77
2023-06-19T12:02:04.448Z,28.55
2023-06-19T12:04:37.418Z,28.15
2023-06-19T12:07:10.294Z,27.97
2023-06-19T12:09:44.781Z,28.00
2023-06-19T12:12:17.023Z,28.05
2023-06-19T12:14:49.308Z,27.99
2023-06-19T12:17:27.600Z,27.99
2023-06-19T12:20:00.350Z,28.33
2023-06-19T12:22:34.220Z,28.47
2023-06-19T12:25:06.703Z,28.38
2023-06-19T12:27:40.202Z,28.16
2023-06-19T12:30:13.150Z,28.02
2023-06-19T12:32:45.581Z,28.03
2023-06-19T12:35:18.125Z,27.70
2023-06-19T12:37:50.434Z,27.63
2023-06-19T12:40:23.144Z,27.65
2023-06-19T12:42:55.736Z,27.70
2023-06-19T12:45:28.156Z,27.43
2023-06-19T12:48:00.547Z,27.42
2023-06-19T12:50:32.906Z,27.26
2023-06-19T12:53:05.240Z,27.35
2023-06-19T12:55:48.788Z,27.45
2023-06-19T12:58:29.846Z,27.47
2023-06-19T13:01:03.151Z,27.29
2023-06-19T13:03:35.416Z,27.14
2023-06-19T13:06:07.744Z,26.98
2023-06-19T13:08:39.970Z,27.01
2023-06-19T13:11:12.219Z,27.02
2023-06-19T13:13:48.706Z,27.03
2023-06-19T13:16:41.024Z,27.06
2023-06-19T13:19:17.533Z,27.03
2023-06-19T13:21:49.887Z,27.04
2023-06-19T13:24:22.248Z,27.29
2023-06-19T13:26:55.667Z,27.60
2023-06-19T13:29:28.053Z,28.29
2023-06-19T13:32:00.419Z,29.54
2023-06-19T13:34:32.702Z,30.18
2023-06-19T13:37:05.390Z,30.66
2023-06-19T13:39:37.698Z,31.02
2023-06-19T13:42:10.406Z,31.43
2023-06-19T13:44:42.799Z,31.59
2023-06-19T13:47:15.368Z,32.09
2023-06-19T13:49:47.626Z,32.73
2023-06-19T13:52:20.247Z,32.17
2023-06-19T13:54:54.737Z,32.50
2023-06-19T13:57:28.489Z,32.53
2023-06-19T14:00:00.850Z,32.67
2023-06-19T14:02:33.208Z,32.48
2023-06-19T14:05:10.623Z,32.55
2023-06-19T14:07:44.169Z,33.18
2023-06-19T14:10:16.508Z,34.11
2023-06-19T14:12:48.820Z,33.79
2023-06-19T14:15:22.914Z,33.55
2023-06-19T14:17:55.471Z,32.93
2023-06-19T14:20:27.972Z,33.00
2023-06-19T14:23:00.400Z,33.25
2023-06-19T14:25:32.839Z,33.27
2023-06-19T14:28:08.477Z,33.12
2023-06-19T14:30:40.767Z,32.18
2023-06-19T14:33:16.511Z,31.37
2023-06-19T14:35:51.460Z,30.92
2023-06-19T14:38:29.261Z,31.03
2023-06-19T14:41:04.933Z,31.50
2023-06-19T14:43:37.426Z,31.60
2023-06-19T14:46:10.481Z,31.44
2023-06-19T14:48:42.970Z,30.65
2023-06-19T14:51:20.965Z,30.14
2023-06-19T14:53:53.390Z,29.84
2023-06-19T14:56:25.848Z,29.67
2023-06-19T14:58:58.368Z,29.20
2023-06-19T15:01:39.449Z,29.22
2023-06-19T15:04:12.122Z,29.41
2023-06-19T15:06:49.286Z,29.66
2023-06-19T15:09:21.855Z,29.48
2023-06-19T15:11:54.162Z,29.81
2023-06-19T15:14:26.696Z,29.84
2023-06-19T15:16:59.130Z,29.83
2023-06-19T15:19:32.029Z,30.01
2023-06-19T15:22:04.702Z,30.18
2023-06-19T15:24:38.046Z,30.14
2023-06-19T15:27:10.638Z,30.01
2023-06-19T15:29:43.281Z,30.06
2023-06-19T15:32:15.636Z,30.09
2023-06-19T15:34:48.008Z,30.02
2023-06-19T15:37:20.563Z,30.09
2023-06-19T15:39:56.139Z,29.66
2023-06-19T15:42:31.886Z,29.77
2023-06-19T15:45:05.913Z,29.69
2023-06-19T15:47:38.657Z,29.62
2023-06-19T15:50:11.731Z,29.81
2023-06-19T15:52:44.220Z,29.60
2023-06-19T15:55:16.652Z,29.59
2023-06-19T15:57:49.005Z,29.94
2023-06-19T16:00:21.603Z,30.11
2023-06-19T16:02:54.129Z,30.00
2023-06-19T16:05:27.317Z,29.87
2023-06-19T16:07:59.775Z,29.92
2023-06-19T16:10:32.241Z,29.82
2023-06-19T16:13:04.825Z,29.63
2023-06-19T16:15:37.139Z,29.60
2023-06-19T16:18:09.810Z,29.37
2023-06-19T16:20:42.200Z,29.24
2023-06-19T16:23:14.710Z,29.26
2023-06-19T16:25:47.175Z,29.39
2023-06-19T16:28:20.024Z,29.32
2023-06-19T16:51:14.099Z,29.22
2023-06-19T17:40:27.042Z,28.21
2023-06-19T18:04:20.374Z,27.26
2023-06-19T18:08:28.621Z,27.28
2023-06-19T18:20:00.372Z,26.91
2023-06-19T18:44:02.459Z,26.91
